sensor_id;sensor_type;location;lat;lon;timestamp;pressure;altitude;pressure_sealevel;temperature;humidity
50087;BME280;35967;50.718;7.050;2023-02-17T00:05:39;101376.34;;;10.90;88.06
50087;BME280;35967;50.718;7.050;2023-02-17T00:15:43;101354.84;;;10.93;88.03
50087;BME280;35967;50.718;7.050;2023-02-17T00:25:48;101353.13;;;10.93;88.59
50087;BME280;35967;50.718;7.050;2023-02-17T00:35:51;101342.75;;;10.99;87.97
50087;BME280;35967;50.718;7.050;2023-02-17T00:45:56;101330.72;;;10.98;87.87
50087;BME280;35967;50.718;7.050;2023-02-17T00:55:59;101328.94;;;11.03;88.29
50087;BME280;35967;50.718;7.050;2023-02-17T01:06:07;101329.84;;;11.01;88.63
50087;BME280;35967;50.718;7.050;2023-02-17T01:16:16;101325.56;;;11.01;88.25
50087;BME280;35967;50.718;7.050;2023-02-17T01:26:22;101323.84;;;11.00;88.35
50087;BME280;35967;50.718;7.050;2023-02-17T01:36:27;101288.56;;;11.05;88.87
50087;BME280;35967;50.718;7.050;2023-02-17T01:46:33;101273.88;;;11.11;87.96
50087;BME280;35967;50.718;7.050;2023-02-17T02:08:21;101250.63;;;11.17;87.98
50087;BME280;35967;50.718;7.050;2023-02-17T02:18:40;101244.53;;;11.21;88.08
50087;BME280;35967;50.718;7.050;2023-02-17T02:29:03;101246.25;;;11.20;87.53
50087;BME280;35967;50.718;7.050;2023-02-17T02:39:13;101248.84;;;11.20;87.43
50087;BME280;35967;50.718;7.050;2023-02-17T02:49:18;101253.09;;;11.23;87.51
50087;BME280;35967;50.718;7.050;2023-02-17T02:59:31;101254.78;;;11.23;87.66
50087;BME280;35967;50.718;7.050;2023-02-17T03:09:36;101231.59;;;11.24;87.41
50087;BME280;35967;50.718;7.050;2023-02-17T03:19:41;101217.63;;;11.38;86.11
50087;BME280;35967;50.718;7.050;2023-02-17T03:29:46;101207.25;;;11.42;85.32
50087;BME280;35967;50.718;7.050;2023-02-17T03:39:53;101212.41;;;11.42;84.93
50087;BME280;35967;50.718;7.050;2023-02-17T03:49:57;101201.94;;;11.50;84.25
50087;BME280;35967;50.718;7.050;2023-02-17T04:00:02;101208.22;;;11.35;84.08
50087;BME280;35967;50.718;7.050;2023-02-17T04:10:13;101214.19;;;11.39;84.11
50087;BME280;35967;50.718;7.050;2023-02-17T04:20:19;101216.81;;;11.35;84.03
50087;BME280;35967;50.718;7.050;2023-02-17T04:30:22;101212.63;;;11.28;84.04
50087;BME280;35967;50.718;7.050;2023-02-17T04:40:27;101219.47;;;11.29;84.04
50087;BME280;35967;50.718;7.050;2023-02-17T04:50:30;101198.03;;;11.29;83.66
50087;BME280;35967;50.718;7.050;2023-02-17T05:00:35;101215.19;;;11.28;83.65
50087;BME280;35967;50.718;7.050;2023-02-17T05:11:03;101204.94;;;11.27;83.47
50087;BME280;35967;50.718;7.050;2023-02-17T05:21:08;101209.13;;;11.32;82.97
50087;BME280;35967;50.718;7.050;2023-02-17T05:31:12;101210.13;;;11.25;83.75
50087;BME280;35967;50.718;7.050;2023-02-17T05:41:17;101210.00;;;11.30;83.07
50087;BME280;35967;50.718;7.050;2023-02-17T05:51:21;101208.28;;;11.32;83.05
50087;BME280;35967;50.718;7.050;2023-02-17T06:01:25;101200.44;;;11.38;82.28
50087;BME280;35967;50.718;7.050;2023-02-17T06:11:29;101192.66;;;11.41;82.17
50087;BME280;35967;50.718;7.050;2023-02-17T06:21:34;101180.53;;;11.48;82.25
50087;BME280;35967;50.718;7.050;2023-02-17T06:31:37;101184.72;;;11.54;82.56
50087;BME280;35967;50.718;7.050;2023-02-17T06:41:42;101194.13;;;11.56;83.47
50087;BME280;35967;50.718;7.050;2023-02-17T06:51:45;101195.91;;;11.52;85.05
50087;BME280;35967;50.718;7.050;2023-02-17T07:01:50;101194.00;;;11.62;85.12
50087;BME280;35967;50.718;7.050;2023-02-17T07:11:56;101189.50;;;11.74;85.73
50087;BME280;35967;50.718;7.050;2023-02-17T07:22:01;101188.53;;;11.79;86.09
50087;BME280;35967;50.718;7.050;2023-02-17T07:32:05;101183.28;;;11.84;86.19
50087;BME280;35967;50.718;7.050;2023-02-17T07:52:40;101168.47;;;11.95;86.93
50087;BME280;35967;50.718;7.050;2023-02-17T08:02:44;101157.13;;;12.06;87.79
50087;BME280;35967;50.718;7.050;2023-02-17T08:12:49;101174.09;;;12.16;88.16
50087;BME280;35967;50.718;7.050;2023-02-17T08:23:06;101166.03;;;12.33;88.07
50087;BME280;35967;50.718;7.050;2023-02-17T08:33:11;101162.28;;;12.46;88.09
50087;BME280;35967;50.718;7.050;2023-02-17T08:43:18;101181.78;;;12.60;88.30
50087;BME280;35967;50.718;7.050;2023-02-17T08:53:22;101188.34;;;12.75;88.15
50087;BME280;35967;50.718;7.050;2023-02-17T09:03:26;101190.63;;;12.89;87.53
50087;BME280;35967;50.718;7.050;2023-02-17T09:13:30;101194.66;;;13.01;86.88
50087;BME280;35967;50.718;7.050;2023-02-17T09:23:35;101194.34;;;13.13;85.62
50087;BME280;35967;50.718;7.050;2023-02-17T09:33:40;101191.16;;;13.72;84.00
50087;BME280;35967;50.718;7.050;2023-02-17T09:43:44;101185.25;;;13.67;83.75
50087;BME280;35967;50.718;7.050;2023-02-17T09:53:52;101180.09;;;13.99;82.39
50087;BME280;35967;50.718;7.050;2023-02-17T10:04:06;101188.97;;;14.22;81.29
50087;BME280;35967;50.718;7.050;2023-02-17T10:14:16;101201.63;;;14.31;80.25
50087;BME280;35967;50.718;7.050;2023-02-17T10:24:20;101195.25;;;14.73;77.93
50087;BME280;35967;50.718;7.050;2023-02-17T10:34:33;101200.56;;;14.96;76.70
50087;BME280;35967;50.718;7.050;2023-02-17T10:44:38;101202.09;;;15.29;75.18
50087;BME280;35967;50.718;7.050;2023-02-17T10:54:46;101201.69;;;15.41;75.40
50087;BME280;35967;50.718;7.050;2023-02-17T11:04:52;101174.63;;;15.74;73.66
50087;BME280;35967;50.718;7.050;2023-02-17T11:14:58;101183.06;;;15.81;73.34
50087;BME280;35967;50.718;7.050;2023-02-17T11:25:18;101196.13;;;15.77;73.58
50087;BME280;35967;50.718;7.050;2023-02-17T11:35:29;101176.09;;;15.81;73.77
50087;BME280;35967;50.718;7.050;2023-02-17T11:45:53;101177.75;;;15.84;73.40
50087;BME280;35967;50.718;7.050;2023-02-17T11:56:10;101159.25;;;15.93;73.16
50087;BME280;35967;50.718;7.050;2023-02-17T12:06:20;101167.75;;;15.98;73.36
50087;BME280;35967;50.718;7.050;2023-02-17T12:16:36;101158.53;;;16.13;72.93
50087;BME280;35967;50.718;7.050;2023-02-17T12:26:44;101131.72;;;16.13;72.30
50087;BME280;35967;50.718;7.050;2023-02-17T12:36:49;101126.69;;;16.54;70.21
50087;BME280;35967;50.718;7.050;2023-02-17T12:46:56;101118.31;;;16.68;68.65
50087;BME280;35967;50.718;7.050;2023-02-17T12:57:09;101094.47;;;16.79;67.97
50087;BME280;35967;50.718;7.050;2023-02-17T13:07:37;101074.84;;;16.92;65.92
50087;BME280;35967;50.718;7.050;2023-02-17T13:17:53;101078.78;;;17.23;64.93
50087;BME280;35967;50.718;7.050;2023-02-17T13:27:57;101091.34;;;17.53;63.21
50087;BME280;35967;50.718;7.050;2023-02-17T13:38:03;101085.25;;;17.14;63.33
50087;BME280;35967;50.718;7.050;2023-02-17T13:48:12;101078.59;;;17.28;62.35
50087;BME280;35967;50.718;7.050;2023-02-17T13:58:22;101089.19;;;17.23;62.23
50087;BME280;35967;50.718;7.050;2023-02-17T14:08:31;101097.97;;;17.21;62.50
50087;BME280;35967;50.718;7.050;2023-02-17T14:18:38;101107.19;;;17.07;62.86
50087;BME280;35967;50.718;7.050;2023-02-17T14:28:50;101121.94;;;16.86;63.14
50087;BME280;35967;50.718;7.050;2023-02-17T14:38:56;101149.63;;;16.65;63.56
50087;BME280;35967;50.718;7.050;2023-02-17T14:49:01;101134.94;;;16.64;64.19
50087;BME280;35967;50.718;7.050;2023-02-17T14:59:05;101160.50;;;16.30;64.65
50087;BME280;35967;50.718;7.050;2023-02-17T15:09:10;101163.44;;;16.21;64.83
50087;BME280;35967;50.718;7.050;2023-02-17T15:19:15;101153.88;;;16.21;65.81
50087;BME280;35967;50.718;7.050;2023-02-17T15:29:20;101171.97;;;16.01;65.98
50087;BME280;35967;50.718;7.050;2023-02-17T15:39:24;101167.84;;;15.95;66.44
50087;BME280;35967;50.718;7.050;2023-02-17T15:49:27;101176.03;;;15.83;67.37
50087;BME280;35967;50.718;7.050;2023-02-17T15:59:34;101212.66;;;15.75;67.80
50087;BME280;35967;50.718;7.050;2023-02-17T16:09:38;101216.09;;;15.50;69.90
50087;BME280;35967;50.718;7.050;2023-02-17T16:19:43;101234.91;;;15.30;70.97
50087;BME280;35967;50.718;7.050;2023-02-17T16:29:46;101273.28;;;15.20;71.42
50087;BME280;35967;50.718;7.050;2023-02-17T16:39:50;101278.22;;;14.99;71.75
50087;BME280;35967;50.718;7.050;2023-02-17T16:49:53;101300.28;;;14.85;72.68
50087;BME280;35967;50.718;7.050;2023-02-17T16:59:57;101343.31;;;14.59;75.30
50087;BME280;35967;50.718;7.050;2023-02-17T17:10:01;101377.84;;;14.26;79.41
50087;BME280;35967;50.718;7.050;2023-02-17T17:20:22;101403.88;;;14.55;81.49
50087;BME280;35967;50.718;7.050;2023-02-17T17:30:30;101433.47;;;13.73;88.66
50087;BME280;35967;50.718;7.050;2023-02-17T17:40:37;101452.88;;;13.10;94.70
50087;BME280;35967;50.718;7.050;2023-02-17T17:50:49;101428.09;;;13.01;94.80
50087;BME280;35967;50.718;7.050;2023-02-17T18:00:54;101445.53;;;12.90;95.65
50087;BME280;35967;50.718;7.050;2023-02-17T18:10:57;101449.63;;;13.00;94.42
50087;BME280;35967;50.718;7.050;2023-02-17T18:21:02;101459.44;;;12.84;93.97
50087;BME280;35967;50.718;7.050;2023-02-17T18:31:05;101461.31;;;12.76;93.18
50087;BME280;35967;50.718;7.050;2023-02-17T18:41:16;101464.44;;;12.93;92.14
50087;BME280;35967;50.718;7.050;2023-02-17T18:51:21;101471.69;;;12.73;91.56
50087;BME280;35967;50.718;7.050;2023-02-17T19:01:28;101487.81;;;12.86;90.00
50087;BME280;35967;50.718;7.050;2023-02-17T19:11:33;101496.59;;;12.75;88.34
50087;BME280;35967;50.718;7.050;2023-02-17T19:21:37;101512.75;;;12.88;87.53
50087;BME280;35967;50.718;7.050;2023-02-17T19:31:41;101517.44;;;12.66;87.30
50087;BME280;35967;50.718;7.050;2023-02-17T19:41:45;101523.56;;;12.60;87.11
50087;BME280;35967;50.718;7.050;2023-02-17T19:51:48;101525.28;;;12.61;86.82
50087;BME280;35967;50.718;7.050;2023-02-17T20:01:53;101536.41;;;12.63;86.85
50087;BME280;35967;50.718;7.050;2023-02-17T20:11:56;101556.09;;;12.72;86.51
50087;BME280;35967;50.718;7.050;2023-02-17T20:22:01;101558.06;;;13.06;83.59
50087;BME280;35967;50.718;7.050;2023-02-17T20:32:04;101573.09;;;12.86;85.00
50087;BME280;35967;50.718;7.050;2023-02-17T20:42:09;101559.56;;;12.71;85.68
50087;BME280;35967;50.718;7.050;2023-02-17T20:52:12;101571.81;;;12.58;85.40
50087;BME280;35967;50.718;7.050;2023-02-17T21:02:17;101569.81;;;12.74;84.59
50087;BME280;35967;50.718;7.050;2023-02-17T21:12:20;101569.25;;;12.55;84.92
50087;BME280;35967;50.718;7.050;2023-02-17T21:22:25;101577.97;;;12.48;85.03
50087;BME280;35967;50.718;7.050;2023-02-17T21:32:28;101577.88;;;12.54;84.84
50087;BME280;35967;50.718;7.050;2023-02-17T21:42:35;101571.38;;;12.30;85.90
50087;BME280;35967;50.718;7.050;2023-02-17T21:52:52;101574.16;;;12.16;86.47
50087;BME280;35967;50.718;7.050;2023-02-17T22:02:57;101560.31;;;12.22;85.38
50087;BME280;35967;50.718;7.050;2023-02-17T22:13:00;101576.94;;;12.01;86.05
50087;BME280;35967;50.718;7.050;2023-02-17T22:23:05;101577.41;;;12.29;84.55
50087;BME280;35967;50.718;7.050;2023-02-17T22:33:08;101568.19;;;12.12;85.12
50087;BME280;35967;50.718;7.050;2023-02-17T22:43:13;101556.91;;;12.18;85.46
50087;BME280;35967;50.718;7.050;2023-02-17T22:53:16;101549.41;;;12.03;86.13
50087;BME280;35967;50.718;7.050;2023-02-17T23:03:22;101537.41;;;12.00;85.82
50087;BME280;35967;50.718;7.050;2023-02-17T23:13:25;101530.53;;;11.96;85.93
50087;BME280;35967;50.718;7.050;2023-02-17T23:23:29;101534.94;;;11.89;86.94
50087;BME280;35967;50.718;7.050;2023-02-17T23:33:33;101532.41;;;11.84;86.95
50087;BME280;35967;50.718;7.050;2023-02-17T23:43:37;101539.41;;;11.76;87.30
50087;BME280;35967;50.718;7.050;2023-02-17T23:53:40;101537.63;;;11.80;87.49
